Time;durP1;ratioP1;P1;durP2;ratioP2;P2;SDS_P1;SDS_P2;PMS_P1;PMS_P2;Temp;Humidity;BMP_temperature;BMP_pressure;BME280_temperature;BME280_humidity;BME280_pressure;Samples;Min_cycle;Max_cycle;Signal;HPM_P1;HPM_P2
2022/04/22 05:02:25;;;;;;;10.47;6.43;;;5.70;99.90;;;;;;5090359;23;20045;-80
2022/04/22 05:04:52;;;;;;;9.20;5.88;;;5.80;99.90;;;;;;5015114;28;20769;-80
2022/04/22 05:07:20;;;;;;;12.43;5.88;;;5.90;99.90;;;;;;4984760;28;20050;-81
2022/04/22 05:09:47;;;;;;;10.40;6.25;;;5.70;99.90;;;;;;5000519;28;20052;-81
2022/04/22 05:12:14;;;;;;;8.85;5.90;;;5.60;99.90;;;;;;5017466;28;20073;-79
2022/04/22 05:14:41;;;;;;;8.95;5.90;;;5.60;99.90;;;;;;5016949;28;20137;-79
2022/04/22 05:17:08;;;;;;;9.48;6.20;;;5.80;99.90;;;;;;5017464;28;20050;-81
2022/04/22 05:19:37;;;;;;;10.60;6.75;;;5.90;99.90;;;;;;5018042;28;20141;-80
2022/04/22 05:22:05;;;;;;;9.70;6.07;;;5.80;99.90;;;;;;5015262;28;20050;-81
2022/04/22 05:24:32;;;;;;;10.23;6.70;;;5.80;99.90;;;;;;5014217;28;20064;-79
2022/04/22 05:27:00;;;;;;;9.15;6.35;;;5.90;99.90;;;;;;5013715;28;20491;-79
2022/04/22 05:34:57;;;;;;;;;;;6.00;99.90;;;;;;5014370;28;20099;-79
2022/04/22 05:37:24;;;;;;;9.27;6.10;;;5.80;99.90;;;;;;5013743;28;19921;-78
2022/04/22 05:39:51;;;;;;;9.48;6.32;;;5.80;99.90;;;;;;5016289;28;20426;-77
2022/04/22 05:42:18;;;;;;;11.02;7.25;;;5.90;99.90;;;;;;5015749;28;20054;-80
2022/04/22 05:44:45;;;;;;;10.90;6.63;;;5.80;99.90;;;;;;5016204;28;20050;-79
2022/04/22 05:47:12;;;;;;;10.18;6.68;;;5.90;99.90;;;;;;5015087;28;20058;-80
2022/04/22 05:49:39;;;;;;;12.75;7.65;;;6.00;99.90;;;;;;5015496;28;20046;-80
2022/04/22 05:52:08;;;;;;;10.90;7.28;;;6.10;99.90;;;;;;5015378;28;20101;-80
2022/04/22 05:54:36;;;;;;;11.35;7.55;;;6.10;99.90;;;;;;5014963;28;20050;-79
2022/04/22 05:57:04;;;;;;;12.60;8.13;;;6.20;99.90;;;;;;5014308;28;20053;-79
2022/04/22 05:59:31;;;;;;;12.38;7.78;;;6.30;99.90;;;;;;5013328;28;20501;-79
2022/04/22 06:01:58;;;;;;;14.30;8.90;;;6.40;99.90;;;;;;5013390;28;20054;-78
2022/04/22 06:04:25;;;;;;;16.25;10.48;;;6.40;99.90;;;;;;5013581;28;20072;-79
2022/04/22 06:06:52;;;;;;;16.10;11.02;;;6.40;99.90;;;;;;5014369;28;20060;-80
2022/04/22 06:12:05;;;;;;;16.25;10.38;;;6.60;99.90;;;;;;5014975;28;20052;-78
2022/04/22 06:14:32;;;;;;;16.77;11.27;;;6.70;99.90;;;;;;5014736;28;20052;-80
2022/04/22 06:16:59;;;;;;;17.40;11.45;;;6.80;99.90;;;;;;5015213;28;20068;-77
2022/04/22 06:19:26;;;;;;;18.25;12.27;;;6.90;99.90;;;;;;5014873;28;20046;-79
2022/04/22 06:21:54;;;;;;;18.52;12.45;;;6.90;99.90;;;;;;5013395;28;20414;-79
2022/04/22 06:24:22;;;;;;;18.08;12.70;;;6.90;99.90;;;;;;5013251;28;20068;-79
2022/04/22 06:26:50;;;;;;;20.38;12.98;;;6.90;99.90;;;;;;5013294;28;20056;-78
2022/04/22 06:29:18;;;;;;;21.98;14.38;;;7.00;99.90;;;;;;5013179;28;20387;-76
2022/04/22 06:31:46;;;;;;;21.30;13.65;;;7.10;99.90;;;;;;5010797;28;20465;-77
2022/04/22 06:34:13;;;;;;;21.83;14.32;;;7.20;99.90;;;;;;5013407;28;20057;-80
2022/04/22 06:36:41;;;;;;;18.48;12.05;;;7.20;99.90;;;;;;5014394;28;20054;-79
2022/04/22 06:39:09;;;;;;;20.65;13.93;;;7.30;99.90;;;;;;5012989;28;20129;-81
2022/04/22 06:47:10;;;;;;;18.75;12.73;;;7.40;99.90;;;;;;5017037;28;20057;-80
2022/04/22 06:49:37;;;;;;;19.55;13.13;;;7.50;99.90;;;;;;5016795;28;20153;-80
2022/04/22 06:52:06;;;;;;;24.42;14.93;;;7.60;99.90;;;;;;5018158;28;20400;-77
2022/04/22 06:54:34;;;;;;;22.05;13.82;;;7.50;99.90;;;;;;5029683;28;20133;-80
2022/04/22 06:57:04;;;;;;;23.13;14.70;;;7.60;99.90;;;;;;5021959;28;20080;-80
2022/04/22 06:59:31;;;;;;;21.63;14.25;;;7.70;99.90;;;;;;5022149;28;20045;-77
2022/04/22 07:01:59;;;;;;;21.63;13.73;;;7.70;99.90;;;;;;5023446;28;20058;-79
2022/04/22 07:04:27;;;;;;;24.67;15.02;;;7.80;99.90;;;;;;5024899;28;20092;-79
2022/04/22 07:06:54;;;;;;;22.02;14.35;;;7.80;99.90;;;;;;5017143;28;20049;-79
2022/04/22 07:09:22;;;;;;;21.98;14.95;;;7.90;99.90;;;;;;5017239;28;20137;-79
2022/04/22 07:11:53;;;;;;;20.95;14.07;;;7.90;99.90;;;;;;5016710;28;20173;-80
2022/04/22 07:14:22;;;;;;;22.40;14.70;;;8.10;99.90;;;;;;5016598;28;20073;-79
2022/04/22 07:16:51;;;;;;;24.02;15.80;;;8.00;99.90;;;;;;5020370;28;20053;-81
2022/04/22 07:19:19;;;;;;;23.10;15.68;;;8.00;99.90;;;;;;5019822;28;20104;-79
2022/04/22 07:21:47;;;;;;;22.42;15.32;;;8.10;99.90;;;;;;5016298;28;20487;-78
2022/04/22 07:24:15;;;;;;;25.65;17.25;;;8.20;99.90;;;;;;5016376;28;20054;-79
2022/04/22 07:26:44;;;;;;;25.63;17.48;;;8.10;99.90;;;;;;5016252;28;20085;-80
2022/04/22 07:29:14;;;;;;;22.77;15.20;;;8.20;99.90;;;;;;5016475;28;20458;-80
2022/04/22 07:31:44;;;;;;;27.85;17.85;;;8.40;99.90;;;;;;4996564;28;20062;-79
2022/04/22 07:34:12;;;;;;;24.17;16.25;;;8.30;99.90;;;;;;4976571;28;20125;-78
2022/04/22 07:36:39;;;;;;;24.45;16.48;;;8.40;99.90;;;;;;4976786;28;20047;-80
2022/04/22 07:39:07;;;;;;;21.75;15.55;;;8.50;99.90;;;;;;4976875;28;20054;-80
2022/04/22 07:41:38;;;;;;;24.40;16.23;;;8.60;99.90;;;;;;4976818;28;20061;-80
2022/04/22 07:46:59;;;;;;;24.40;16.50;;;8.60;99.90;;;;;;4994519;28;20074;-79
2022/04/22 07:49:28;;;;;;;22.73;15.57;;;8.70;99.90;;;;;;4996177;28;20073;-79
2022/04/22 07:51:55;;;;;;;25.13;16.77;;;8.80;99.90;;;;;;4994664;28;20104;-80
2022/04/22 07:54:23;;;;;;;22.30;16.08;;;8.90;99.90;;;;;;4994694;28;20104;-79
2022/04/22 07:56:50;;;;;;;21.02;14.73;;;9.00;99.90;;;;;;4996660;28;20126;-79
2022/04/22 07:59:17;;;;;;;20.83;14.23;;;9.10;99.90;;;;;;4996454;28;20047;-79
2022/04/22 08:01:44;;;;;;;20.63;13.95;;;9.20;99.90;;;;;;4996384;28;20516;-78
2022/04/22 08:04:13;;;;;;;21.80;15.32;;;9.20;99.90;;;;;;5002931;28;20105;-81
2022/04/22 08:06:40;;;;;;;20.25;14.70;;;9.20;99.90;;;;;;4995976;28;20125;-78
2022/04/22 08:09:07;;;;;;;22.98;15.20;;;9.30;99.90;;;;;;4986051;28;20112;-79
2022/04/22 08:11:35;;;;;;;23.83;16.67;;;9.30;99.90;;;;;;4982656;28;20101;-80
2022/04/22 08:14:02;;;;;;;22.17;16.05;;;9.40;99.90;;;;;;4976771;28;20480;-78
2022/04/22 08:16:29;;;;;;;20.35;14.88;;;9.50;99.90;;;;;;4977310;28;20228;-80
2022/04/22 08:18:56;;;;;;;24.98;16.95;;;9.50;99.90;;;;;;4986864;28;20114;-80
2022/04/22 08:21:24;;;;;;;23.35;16.05;;;9.50;99.90;;;;;;4978937;28;20054;-79
2022/04/22 08:23:51;;;;;;;20.05;14.15;;;9.60;99.90;;;;;;4977475;28;20492;-79
2022/04/22 08:26:19;;;;;;;25.25;16.55;;;9.70;99.90;;;;;;4976783;28;20053;-79
2022/04/22 08:28:46;;;;;;;21.33;15.13;;;9.70;99.90;;;;;;4976633;28;20078;-81
2022/04/22 08:31:14;;;;;;;23.20;15.98;;;9.80;99.90;;;;;;4976276;28;20054;-80
2022/04/22 08:33:43;;;;;;;18.98;13.98;;;10.00;99.90;;;;;;4976220;28;20047;-78
2022/04/22 08:36:11;;;;;;;20.38;14.63;;;10.10;99.90;;;;;;4978968;28;20047;-81
2022/04/22 08:38:39;;;;;;;19.40;14.38;;;10.10;99.90;;;;;;4995167;28;20141;-80
2022/04/22 08:41:08;;;;;;;20.65;14.55;;;10.10;99.90;;;;;;4995482;28;20503;-80
2022/04/22 08:43:36;;;;;;;22.27;15.43;;;10.10;99.90;;;;;;4988179;28;20126;-79
2022/04/22 08:46:03;;;;;;;20.83;14.98;;;10.10;99.90;;;;;;4973265;28;20057;-81
2022/04/22 08:51:16;;;;;;;20.88;14.65;;;10.40;99.90;;;;;;4984479;28;20061;-79
2022/04/22 08:53:49;;;;;;;18.70;13.13;;;10.40;99.90;;;;;;4992310;28;20076;-80
2022/04/22 08:56:17;;;;;;;21.63;15.15;;;10.60;99.90;;;;;;4988033;28;20165;-78
2022/04/22 08:58:44;;;;;;;18.42;12.68;;;10.60;99.90;;;;;;4983212;28;20135;-78
2022/04/22 09:01:12;;;;;;;20.38;14.93;;;10.70;99.90;;;;;;5003058;28;20058;-81
2022/04/22 09:03:39;;;;;;;20.40;14.57;;;10.80;99.90;;;;;;4985680;28;20133;-79
2022/04/22 09:06:06;;;;;;;20.42;13.80;;;10.70;99.60;;;;;;4972531;28;20078;-77
2022/04/22 09:08:34;;;;;;;17.83;13.38;;;10.80;99.50;;;;;;4972581;28;20046;-81
2022/04/22 09:11:04;;;;;;;20.83;14.45;;;11.00;99.40;;;;;;4973113;28;20441;-83
2022/04/22 09:13:32;;;;;;;21.25;15.07;;;11.00;99.30;;;;;;4971643;28;20134;-83
2022/04/22 09:16:00;;;;;;;20.23;13.68;;;11.10;99.20;;;;;;4963199;28;20049;-84
2022/04/22 09:18:27;;;;;;;19.52;13.25;;;11.00;99.00;;;;;;4992435;28;20156;-83
2022/04/22 09:21:02;;;;;;;16.70;12.80;;;11.20;98.90;;;;;;4992397;28;20054;-81
2022/04/22 09:23:34;;;;;;;15.55;11.88;;;11.40;98.30;;;;;;4992709;28;20436;-83
2022/04/22 09:26:04;;;;;;;18.23;12.05;;;11.50;98.30;;;;;;4992492;28;20415;-81
2022/04/22 09:28:32;;;;;;;18.45;13.73;;;11.50;97.90;;;;;;4992511;28;20546;-82
2022/04/22 09:31:01;;;;;;;19.35;14.52;;;11.60;97.60;;;;;;4991955;28;20054;-83
2022/04/22 09:33:35;;;;;;;17.45;13.40;;;11.50;97.20;;;;;;4990368;28;20130;-82
2022/04/22 09:44:27;;;;;;;14.63;10.85;;;12.00;96.80;;;;;;4973377;28;20129;-81
2022/04/22 09:47:12;;;;;;;14.57;10.40;;;12.10;96.30;;;;;;4993748;28;20395;-85
2022/04/22 09:49:43;;;;;;;14.75;10.55;;;12.20;96.10;;;;;;4994270;28;20514;-89
2022/04/22 09:52:10;;;;;;;14.50;10.30;;;12.30;96.30;;;;;;4994802;28;20403;-89
2022/04/22 09:54:39;;;;;;;15.10;11.15;;;12.30;95.70;;;;;;4994477;28;20054;-89
2022/04/22 09:57:07;;;;;;;14.43;10.95;;;12.40;95.60;;;;;;4994152;28;20062;-89
2022/04/22 09:59:35;;;;;;;15.07;11.50;;;12.40;95.30;;;;;;4993882;28;20053;-89
2022/04/22 10:02:04;;;;;;;15.18;11.95;;;12.50;95.30;;;;;;4992948;28;20510;-87
2022/04/22 10:04:33;;;;;;;15.80;11.70;;;12.70;95.00;;;;;;4993909;28;20132;-86
2022/04/22 10:07:02;;;;;;;14.75;11.02;;;12.70;95.00;;;;;;5002240;28;20042;-86
2022/04/22 10:09:31;;;;;;;16.25;11.85;;;12.60;94.90;;;;;;5013726;28;20506;-84
2022/04/22 10:12:00;;;;;;;13.63;10.00;;;12.70;94.60;;;;;;5014039;28;20068;-85
2022/04/22 10:14:36;;;;;;;14.85;11.00;;;12.80;94.20;;;;;;5011816;28;20068;-88
2022/04/22 10:17:07;;;;;;;12.48;9.52;;;13.00;94.30;;;;;;4994954;28;20447;-87
2022/04/22 10:19:36;;;;;;;13.00;10.13;;;13.00;94.50;;;;;;4975694;28;20077;-88
2022/04/22 10:22:07;;;;;;;15.38;11.95;;;13.10;94.30;;;;;;4972757;28;20141;-86
2022/04/22 10:24:34;;;;;;;14.93;10.65;;;13.20;93.70;;;;;;4973523;28;20074;-87
2022/04/22 10:27:03;;;;;;;15.55;11.40;;;13.00;94.10;;;;;;4965405;28;20046;-88
2022/04/22 10:29:33;;;;;;;17.58;12.88;;;13.20;94.30;;;;;;4987774;28;20050;-84
2022/04/22 10:32:02;;;;;;;14.35;10.90;;;13.20;94.10;;;;;;4979531;28;20046;-79
2022/04/22 10:34:40;;;;;;;12.75;9.23;;;13.30;93.40;;;;;;4993491;28;20046;-78
2022/04/22 10:37:17;;;;;;;14.48;10.73;;;13.40;94.00;;;;;;4993260;28;20047;-78
2022/04/22 10:39:49;;;;;;;13.65;10.00;;;13.70;93.20;;;;;;4993355;28;20054;-78
2022/04/22 10:42:17;;;;;;;13.82;10.48;;;13.70;92.60;;;;;;4992059;28;20043;-83
2022/04/22 10:47:43;;;;;;;12.25;9.00;;;13.70;92.60;;;;;;4985373;28;20064;-80
2022/04/22 10:50:28;;;;;;;11.25;8.70;;;13.90;92.40;;;;;;4993398;28;20051;-79
2022/04/22 10:53:04;;;;;;;13.68;9.23;;;14.00;91.80;;;;;;4993199;28;20057;-78
2022/04/22 10:55:36;;;;;;;12.50;9.35;;;14.20;92.20;;;;;;4993924;28;20052;-79
2022/04/22 10:58:24;;;;;;;13.18;9.43;;;14.10;92.10;;;;;;4985202;28;20042;-79
2022/04/22 11:00:57;;;;;;;12.80;9.93;;;14.10;92.00;;;;;;4973605;28;20055;-78
2022/04/22 11:03:25;;;;;;;13.73;10.77;;;14.00;91.50;;;;;;4974000;28;20101;-79
2022/04/22 11:05:56;;;;;;;13.13;9.80;;;14.10;92.20;;;;;;4973838;28;20047;-80
2022/04/22 11:08:30;;;;;;;11.77;9.50;;;14.30;92.20;;;;;;4974290;28;20047;-80
2022/04/22 11:11:06;;;;;;;12.55;9.85;;;14.50;90.90;;;;;;4985501;28;20047;-78
2022/04/22 11:13:38;;;;;;;11.32;8.88;;;14.50;91.10;;;;;;5004975;28;20053;-79
2022/04/22 11:16:14;;;;;;;10.73;8.13;;;14.60;91.40;;;;;;4990729;28;20054;-77
2022/04/22 11:18:43;;;;;;;9.23;7.45;;;14.80;90.80;;;;;;5007778;28;20126;-77
2022/04/22 11:21:19;;;;;;;15.30;10.27;;;14.90;90.80;;;;;;5004247;28;20057;-78
2022/04/22 11:23:46;;;;;;;13.63;9.98;;;15.00;89.60;;;;;;4993712;28;20050;-78
2022/04/22 11:26:16;;;;;;;12.90;9.23;;;15.00;87.60;;;;;;4985741;28;20121;-79
2022/04/22 11:28:45;;;;;;;10.15;7.78;;;14.90;87.90;;;;;;4975571;28;20050;-79
2022/04/22 11:31:15;;;;;;;10.20;8.02;;;15.10;89.00;;;;;;4977085;28;20137;-77
2022/04/22 11:33:54;;;;;;;10.43;8.43;;;15.20;87.80;;;;;;4976919;28;20078;-80
2022/04/22 11:36:21;;;;;;;11.13;8.05;;;15.40;88.30;;;;;;4977082;28;20047;-79
2022/04/22 11:38:50;;;;;;;8.57;6.75;;;15.60;86.10;;;;;;4976898;28;20510;-80
2022/04/22 11:41:18;;;;;;;10.02;7.28;;;15.60;86.60;;;;;;4990345;28;20056;-79
2022/04/22 11:43:46;;;;;;;9.45;7.43;;;15.70;85.30;;;;;;4996214;28;20522;-77
2022/04/22 11:46:17;;;;;;;9.02;7.28;;;15.70;84.40;;;;;;4996401;28;20062;-79
2022/04/22 11:48:53;;;;;;;9.15;6.90;;;15.70;83.20;;;;;;4995767;28;20050;-79
2022/04/22 11:51:21;;;;;;;8.93;6.65;;;15.80;82.30;;;;;;4996406;28;20133;-80
2022/04/22 11:53:51;;;;;;;10.48;7.75;;;16.00;82.30;;;;;;4994309;28;20046;-80
2022/04/22 11:56:21;;;;;;;11.43;7.40;;;16.20;81.60;;;;;;4998181;28;20440;-81
2022/04/22 11:58:55;;;;;;;10.00;6.65;;;16.20;80.30;;;;;;5002537;28;20050;-80
2022/04/22 12:08:00;;;;;;;9.90;6.93;;;16.60;79.40;;;;;;4995875;28;20058;-80
2022/04/22 12:09:51;;;;;;;9.68;6.63;;;16.60;78.60;;;;;;4978819;28;20058;-80
2022/04/22 12:12:18;;;;;;;10.05;6.03;;;16.80;77.30;;;;;;4976562;28;20073;-79
2022/04/22 12:14:45;;;;;;;9.63;7.00;;;16.80;76.80;;;;;;4976477;28;20093;-79
2022/04/22 12:17:24;;;;;;;11.15;7.22;;;17.00;77.70;;;;;;4976246;28;20130;-79
2022/04/22 12:19:53;;;;;;;9.63;6.22;;;16.90;76.40;;;;;;4976519;28;20094;-79
2022/04/22 12:22:20;;;;;;;7.47;5.47;;;17.00;75.30;;;;;;4978353;28;20558;-79
2022/04/22 12:25:10;;;;;;;8.25;6.47;;;17.30;75.70;;;;;;4995717;28;20077;-79
2022/04/22 12:27:38;;;;;;;9.70;6.68;;;17.10;73.80;;;;;;4995583;28;20054;-80
2022/04/22 12:30:08;;;;;;;9.13;6.80;;;17.40;74.50;;;;;;4995216;28;20046;-80
2022/04/22 12:32:37;;;;;;;9.35;6.72;;;17.40;73.30;;;;;;4995627;28;20054;-79
2022/04/22 12:35:15;;;;;;;9.38;7.20;;;17.50;71.80;;;;;;4995319;28;20050;-79
2022/04/22 12:37:46;;;;;;;8.43;6.88;;;17.70;72.20;;;;;;4993689;28;20226;-78
2022/04/22 12:40:15;;;;;;;8.15;5.95;;;17.90;70.80;;;;;;4990074;28;20046;-79
2022/04/22 12:42:42;;;;;;;7.60;6.00;;;18.10;70.90;;;;;;4979612;28;20050;-80
2022/04/22 12:53:41;;;;;;;8.45;5.90;;;18.50;68.40;;;;;;4978454;28;20173;-80
2022/04/22 12:56:10;;;;;;;11.57;6.32;;;18.40;68.30;;;;;;4994323;28;20053;-80
2022/04/22 12:58:51;;;;;;;9.15;6.00;;;18.80;67.00;;;;;;4977490;28;20250;-78
2022/04/22 13:01:20;;;;;;;10.68;6.97;;;18.80;66.90;;;;;;4988301;28;20510;-77
2022/04/22 13:03:49;;;;;;;8.82;6.20;;;18.80;66.20;;;;;;4975984;28;20059;-80
2022/04/22 13:06:41;;;;;;;7.88;6.10;;;18.60;66.50;;;;;;4975594;28;20098;-81
2022/04/22 13:09:10;;;;;;;7.55;5.80;;;19.10;66.30;;;;;;4975430;28;20555;-77
2022/04/22 13:11:37;;;;;;;8.05;5.38;;;19.20;65.80;;;;;;4975014;28;20057;-78
2022/04/22 13:14:06;;;;;;;6.28;4.40;;;19.20;65.70;;;;;;4976759;28;20128;-78
2022/04/22 13:16:33;;;;;;;5.07;3.58;;;19.40;65.20;;;;;;4979158;28;20125;-81
2022/04/22 13:19:03;;;;;;;6.00;4.05;;;19.50;63.90;;;;;;4991033;28;20062;-79
2022/04/22 13:21:30;;;;;;;5.50;3.97;;;19.50;64.30;;;;;;4990382;28;20140;-77
2022/04/22 13:23:58;;;;;;;6.25;3.85;;;19.60;63.40;;;;;;4991426;28;20062;-82
2022/04/22 13:26:25;;;;;;;5.90;4.00;;;19.70;63.00;;;;;;4991262;28;20495;-80
2022/04/22 13:28:54;;;;;;;6.72;3.90;;;19.80;61.80;;;;;;4991479;28;20054;-80
2022/04/22 13:31:22;;;;;;;4.95;3.38;;;19.80;60.80;;;;;;4985870;28;20308;-79
2022/04/22 13:33:49;;;;;;;5.75;3.88;;;19.90;61.40;;;;;;4989421;28;20046;-78
2022/04/22 13:36:18;;;;;;;7.30;5.10;;;20.00;62.50;;;;;;4983607;28;20555;-76
2022/04/22 13:38:45;;;;;;;5.82;4.18;;;19.70;61.60;;;;;;4991007;28;20069;-79
2022/04/22 13:41:12;;;;;;;5.40;3.72;;;19.40;61.60;;;;;;4990423;28;20060;-77
2022/04/22 13:43:39;;;;;;;5.50;4.07;;;19.70;61.50;;;;;;4991647;28;20125;-82
2022/04/22 13:54:21;;;;;;;6.80;4.70;;;19.80;60.70;;;;;;4973473;28;20066;-84
2022/04/22 13:56:49;;;;;;;6.55;4.78;;;19.80;59.90;;;;;;4972918;28;20050;-83
2022/04/22 13:59:16;;;;;;;6.40;4.60;;;19.70;60.30;;;;;;4972819;28;20452;-83
2022/04/22 14:01:43;;;;;;;6.68;4.95;;;19.70;60.40;;;;;;4953955;28;20141;-82
2022/04/22 14:04:10;;;;;;;8.05;5.43;;;19.70;60.00;;;;;;4972887;28;20049;-83
2022/04/22 14:06:39;;;;;;;5.80;4.18;;;20.00;60.00;;;;;;4973179;28;20579;-82
2022/04/22 14:09:06;;;;;;;6.18;4.18;;;20.00;59.00;;;;;;4973176;28;20078;-83
2022/04/22 14:11:33;;;;;;;7.63;5.22;;;20.40;58.70;;;;;;4988796;28;20099;-84
2022/04/22 14:14:00;;;;;;;7.18;4.72;;;20.40;58.80;;;;;;4991967;28;20086;-84
2022/04/22 14:16:28;;;;;;;5.63;3.70;;;20.40;58.20;;;;;;4992986;28;20046;-84
2022/04/22 14:18:55;;;;;;;5.50;4.30;;;20.60;58.20;;;;;;4987575;28;20086;-83
2022/04/22 14:21:23;;;;;;;5.07;3.67;;;20.50;57.70;;;;;;4988649;28;20104;-86
2022/04/22 14:23:52;;;;;;;6.53;4.32;;;20.60;57.60;;;;;;4980143;28;20085;-88
2022/04/22 14:26:19;;;;;;;6.82;4.15;;;20.60;56.90;;;;;;4961485;28;20042;-87
2022/04/22 14:28:47;;;;;;;6.32;4.47;;;21.00;56.00;;;;;;4991958;28;20057;-87
2022/04/22 14:31:15;;;;;;;6.88;5.40;;;20.90;55.90;;;;;;4995044;28;20078;-88
2022/04/22 14:33:43;;;;;;;8.30;4.95;;;20.90;55.70;;;;;;4994874;28;20054;-86
2022/04/22 14:36:12;;;;;;;8.02;4.70;;;21.10;56.10;;;;;;4977514;28;20043;-86
2022/04/22 14:38:39;;;;;;;6.22;4.45;;;21.20;55.80;;;;;;4990317;28;20065;-88
2022/04/22 14:41:08;;;;;;;6.38;4.50;;;21.20;55.70;;;;;;4975504;28;20068;-87
2022/04/22 14:43:35;;;;;;;6.25;4.00;;;20.90;55.60;;;;;;4976588;28;20138;-87
2022/04/22 14:46:02;;;;;;;6.45;4.13;;;20.80;56.30;;;;;;4994544;28;20084;-88
2022/04/22 14:48:30;;;;;;;6.95;4.43;;;20.90;55.70;;;;;;4995189;28;20479;-85
2022/04/22 14:50:58;;;;;;;5.80;4.43;;;21.10;56.60;;;;;;4978383;28;20050;-81
2022/04/22 14:53:25;;;;;;;6.18;3.95;;;21.40;55.20;;;;;;4982457;28;20047;-84
2022/04/22 14:55:53;;;;;;;8.23;5.13;;;21.50;53.80;;;;;;4973899;28;20046;-83
2022/04/22 14:58:22;;;;;;;6.38;3.67;;;21.60;54.00;;;;;;4989479;28;20133;-80
2022/04/22 15:00:49;;;;;;;5.78;3.80;;;21.80;54.20;;;;;;4961608;28;20050;-80
2022/04/22 15:03:16;;;;;;;5.65;3.83;;;21.90;54.00;;;;;;4992685;28;20141;-81
2022/04/22 15:05:43;;;;;;;5.63;4.25;;;21.90;53.80;;;;;;4994645;28;20048;-81
2022/04/22 15:08:11;;;;;;;5.45;3.88;;;21.70;53.10;;;;;;4975005;28;20110;-79
2022/04/22 15:10:38;;;;;;;6.68;4.07;;;22.00;53.30;;;;;;4987364;28;20062;-80
2022/04/22 15:13:06;;;;;;;5.95;4.53;;;21.90;53.40;;;;;;4995790;28;20113;-81
2022/04/22 15:15:35;;;;;;;7.40;4.93;;;21.50;53.40;;;;;;4977683;28;20098;-79
2022/04/22 15:26:17;;;;;;;7.88;4.82;;;21.20;53.80;;;;;;4992360;28;20098;-81
2022/04/22 15:28:45;;;;;;;5.15;3.80;;;21.30;53.20;;;;;;4976763;28;20139;-82
2022/04/22 15:31:13;;;;;;;5.90;4.45;;;21.20;53.80;;;;;;4995389;28;20959;-84
2022/04/22 15:33:42;;;;;;;6.35;3.95;;;21.40;52.80;;;;;;4994462;28;20050;-81
2022/04/22 15:36:10;;;;;;;5.05;3.50;;;21.50;53.70;;;;;;4995304;28;20056;-80
2022/04/22 15:38:41;;;;;;;6.22;4.05;;;21.90;54.10;;;;;;4994243;28;20054;-79
2022/04/22 15:41:10;;;;;;;6.57;4.20;;;22.20;51.90;;;;;;4975602;28;20051;-80
2022/04/22 15:43:40;;;;;;;6.32;3.97;;;22.00;52.40;;;;;;4975600;28;20500;-81
2022/04/22 15:46:07;;;;;;;4.90;3.38;;;21.90;52.20;;;;;;4988683;28;20050;-82
2022/04/22 15:48:38;;;;;;;5.50;4.00;;;21.90;52.00;;;;;;4997516;28;20133;-81
2022/04/22 15:51:06;;;;;;;5.43;4.03;;;21.70;52.70;;;;;;4996554;28;20089;-82
2022/04/22 15:53:34;;;;;;;6.57;4.65;;;22.10;52.50;;;;;;5001075;28;20046;-79
2022/04/22 15:56:04;;;;;;;7.03;5.13;;;21.80;52.30;;;;;;4990433;28;20081;-79
2022/04/22 15:58:32;;;;;;;10.43;6.72;;;21.80;52.80;;;;;;4994187;28;20066;-81
2022/04/22 16:00:59;;;;;;;7.07;5.10;;;22.10;50.90;;;;;;4992158;28;20082;-79
2022/04/22 16:03:27;;;;;;;6.95;4.85;;;22.00;51.10;;;;;;4985848;28;20047;-78
2022/04/22 16:05:56;;;;;;;6.68;3.90;;;22.30;51.30;;;;;;4974629;28;20050;-78
2022/04/22 16:08:24;;;;;;;8.23;4.68;;;23.10;50.00;;;;;;4988796;28;20053;-78
2022/04/22 16:10:51;;;;;;;5.25;3.95;;;23.30;49.50;;;;;;4975856;28;20061;-78
2022/04/22 16:16:03;;;;;;;5.43;3.95;;;23.20;48.50;;;;;;4973313;28;20073;-76
2022/04/22 16:18:30;;;;;;;5.93;4.22;;;22.70;49.40;;;;;;4973986;28;20057;-78
2022/04/22 16:21:00;;;;;;;5.90;4.45;;;22.50;49.70;;;;;;4992074;28;20050;-79
2022/04/22 16:23:27;;;;;;;6.53;4.00;;;22.60;50.50;;;;;;4993457;28;20098;-82
2022/04/22 16:25:54;;;;;;;5.88;3.90;;;22.50;49.90;;;;;;4989526;28;20154;-80
2022/04/22 16:28:21;;;;;;;5.53;3.95;;;22.50;49.80;;;;;;4973992;28;20126;-81
2022/04/22 16:30:48;;;;;;;5.47;3.92;;;22.30;49.80;;;;;;4982820;28;20086;-82
2022/04/22 16:33:16;;;;;;;7.10;4.45;;;22.20;50.20;;;;;;4979639;28;20086;-78
2022/04/22 16:35:43;;;;;;;6.32;3.90;;;21.90;49.80;;;;;;4986825;28;20061;-82
2022/04/22 16:38:13;;;;;;;6.05;3.83;;;21.70;50.10;;;;;;4991856;28;20050;-83
2022/04/22 16:40:44;;;;;;;7.07;3.80;;;22.10;50.50;;;;;;4993672;28;20062;-82
2022/04/22 16:43:13;;;;;;;5.97;3.75;;;22.00;50.00;;;;;;4947928;28;20050;-84
2022/04/22 16:45:41;;;;;;;7.35;4.45;;;22.30;50.80;;;;;;4990427;28;20046;-82
2022/04/22 16:48:09;;;;;;;7.63;4.40;;;22.70;49.50;;;;;;4999341;28;20176;-84
2022/04/22 16:50:37;;;;;;;8.15;5.78;;;22.40;48.90;;;;;;4989687;28;20065;-80
2022/04/22 16:53:05;;;;;;;7.05;4.65;;;22.60;48.30;;;;;;4979512;28;20560;-81
2022/04/22 16:55:33;;;;;;;6.03;4.20;;;22.40;48.50;;;;;;4976627;28;20090;-83
2022/04/22 16:58:00;;;;;;;5.43;3.58;;;22.20;50.10;;;;;;4981178;28;20051;-85
2022/04/22 17:00:31;;;;;;;6.82;3.60;;;22.40;49.20;;;;;;4983786;28;20463;-79
2022/04/22 17:02:58;;;;;;;6.57;3.80;;;22.10;49.30;;;;;;4972561;28;20468;-78
2022/04/22 17:05:26;;;;;;;5.25;3.95;;;21.60;49.30;;;;;;4987776;28;20061;-79
2022/04/22 17:07:53;;;;;;;5.38;3.63;;;21.50;51.60;;;;;;4992314;28;20046;-81
2022/04/22 17:10:21;;;;;;;5.90;4.00;;;21.30;50.90;;;;;;4993288;28;20050;-81
2022/04/22 17:12:50;;;;;;;6.10;3.72;;;21.00;51.00;;;;;;4982757;28;20185;-84
2022/04/22 17:23:31;;;;;;;4.80;3.42;;;20.50;52.60;;;;;;4988627;28;20126;-79
2022/04/22 17:25:58;;;;;;;4.82;3.35;;;20.30;52.30;;;;;;4978045;28;20050;-79
2022/04/22 17:28:27;;;;;;;5.18;3.70;;;20.00;53.00;;;;;;4984814;28;20057;-78
2022/04/22 17:30:54;;;;;;;5.43;3.70;;;19.90;53.50;;;;;;4972359;28;20141;-80
2022/04/22 17:33:21;;;;;;;7.82;4.30;;;19.80;53.50;;;;;;4989161;28;20129;-77
2022/04/22 17:35:48;;;;;;;5.88;3.85;;;19.70;53.90;;;;;;4982269;28;20058;-77
2022/04/22 17:38:15;;;;;;;6.65;3.78;;;19.60;54.00;;;;;;4990777;28;20050;-79
2022/04/22 17:40:43;;;;;;;5.63;3.70;;;19.80;54.00;;;;;;4980245;28;20086;-78
2022/04/22 17:43:10;;;;;;;7.28;4.00;;;19.70;54.00;;;;;;4987735;28;20119;-77
2022/04/22 17:45:39;;;;;;;5.95;3.70;;;19.60;54.20;;;;;;4982782;28;20784;-79
2022/04/22 17:48:06;;;;;;;5.80;3.85;;;19.60;54.50;;;;;;4972369;28;20046;-78
2022/04/22 17:50:33;;;;;;;7.15;4.05;;;19.70;54.20;;;;;;4983285;28;20105;-77
2022/04/22 17:53:00;;;;;;;6.40;3.40;;;19.30;54.60;;;;;;4990084;28;20129;-81
2022/04/22 17:55:28;;;;;;;6.70;4.45;;;19.50;55.50;;;;;;4986075;28;20108;-79
2022/04/22 17:57:55;;;;;;;6.70;4.45;;;19.60;55.30;;;;;;4991578;28;20056;-81
2022/04/22 18:00:23;;;;;;;7.03;4.18;;;19.40;55.00;;;;;;4975742;28;20081;-77
2022/04/22 18:02:52;;;;;;;5.72;4.10;;;19.30;55.20;;;;;;4973283;28;20148;-78
2022/04/22 18:05:22;;;;;;;5.25;4.05;;;19.10;55.60;;;;;;4990140;28;20050;-79
2022/04/22 18:07:51;;;;;;;6.90;4.22;;;19.00;55.80;;;;;;4990716;28;20046;-82
2022/04/22 18:10:18;;;;;;;5.85;4.00;;;18.80;56.20;;;;;;4984514;28;20043;-79
2022/04/22 18:12:45;;;;;;;6.13;3.65;;;18.60;56.50;;;;;;4971515;28;20090;-78
2022/04/22 18:18:02;;;;;;;5.35;3.55;;;18.60;57.20;;;;;;4990349;28;20101;-79
2022/04/22 18:20:29;;;;;;;5.50;4.10;;;18.70;57.40;;;;;;4990296;28;20053;-77
2022/04/22 18:22:56;;;;;;;5.60;3.80;;;18.40;57.90;;;;;;4985460;28;20054;-84
2022/04/22 18:25:23;;;;;;;5.30;3.33;;;18.20;58.50;;;;;;4981466;28;20046;-78
2022/04/22 18:27:50;;;;;;;6.50;3.50;;;18.30;59.10;;;;;;4990703;28;20058;-79
2022/04/22 18:30:17;;;;;;;4.88;3.40;;;18.30;59.80;;;;;;4990333;28;20385;-78
2022/04/22 18:32:44;;;;;;;4.75;3.20;;;18.30;59.40;;;;;;4992840;28;20054;-77
2022/04/22 18:35:13;;;;;;;5.60;3.38;;;18.30;60.00;;;;;;4992905;28;20050;-78
2022/04/22 18:37:41;;;;;;;6.75;4.03;;;18.20;60.00;;;;;;4993874;28;20061;-80
2022/04/22 18:40:10;;;;;;;5.90;3.53;;;18.00;60.40;;;;;;4988014;28;20054;-79
2022/04/22 18:42:37;;;;;;;5.00;3.28;;;17.90;61.60;;;;;;4984478;28;20125;-79
2022/04/22 18:45:05;;;;;;;5.28;3.05;;;17.90;61.80;;;;;;4994735;28;20066;-78
2022/04/22 18:47:33;;;;;;;5.03;3.35;;;17.80;61.80;;;;;;4994856;28;20117;-78
2022/04/22 18:50:00;;;;;;;5.05;3.35;;;17.90;61.60;;;;;;4994239;28;20129;-80
2022/04/22 18:52:29;;;;;;;4.82;3.30;;;17.90;61.80;;;;;;4992585;28;20068;-78
2022/04/22 18:54:57;;;;;;;5.20;3.85;;;17.80;62.20;;;;;;4975398;28;20047;-77
2022/04/22 18:57:24;;;;;;;5.05;3.63;;;17.60;63.00;;;;;;4975041;28;20058;-78
2022/04/22 18:59:51;;;;;;;5.90;3.53;;;17.60;62.90;;;;;;4985889;28;20112;-79
2022/04/22 19:02:18;;;;;;;6.03;3.38;;;17.60;62.20;;;;;;4993368;28;20054;-77
2022/04/22 19:04:45;;;;;;;4.60;3.33;;;17.50;64.40;;;;;;4993752;28;20054;-78